KCNO

Chino Airport

Chino, California, USA
METAR KCNO 230053Z 24013KT 10SM CLR 32/09 A2984 RMK AO2 SLP099 T03220094
Observed Flight Rules
Sep-23 @ 00:53 UTC (22 minutes ago) Visual Flight Rules
Wind Visibility Clouds
240° at 13 knots 10 miles
Temperatures Readings
Current 32°C / 90°F
Dewpoint 9°C / 48°F
Humidity 24%
Altimeter 29.84" Hg
Pressure 1009.9 hPa
Elevation 207
METAR KCNO 230053Z 24013KT 10SM CLR 32/09 A2984 RMK AO2 SLP099 T03220094
Observed Flight Rules
Sep-23 @ 00:53 UTC
(22 minutes ago)
VFR
Wind Visibility
240° at 13 knots 10 miles
Clouds
Temperature Dewpoint
32°C / 90°F 9°C / 48°F
Humidity Altimeter Pressure
24% 29.84" Hg 1009.9 hPa